Hye, Texas
Current Conditions -  °F | °C
As of 11:55 PM on Tuesday 21 Oct 2014 (Local Time) from KT82 Reporting Station
Clear Clear  
Wind Chill: 63°   Ceiling: Unl
Heat Index: 63°   Visibility: 10mi
Dew Point: 51°   Wind: 0mph
Humidity: 66%   Direction: NA
Pressure: 30.08"   Gusts: NA
Location:  30.24°N, 98.57°W
Report Text: KT82 220455Z AUTO 00000KT 10SM CLR 17/11 A3008 RMK AO2 T01700106
Loading
Personal Weather Stations






























Interactive Weather Map
Tropical Storm Tracking
New forecast layout! Learn more

10-Day Weather Forecast

Advertisements
Track Severe Weather on mobile